Time;durP1;ratioP1;P1;durP2;ratioP2;P2;SDS_P1;SDS_P2;PMS_P1;PMS_P2;Temp;Humidity;BMP_temperature;BMP_pressure;BME280_temperature;BME280_humidity;BME280_pressure;Samples;Min_cycle;Max_cycle;Signal;HPM_P1;HPM_P2
2022/09/29 00:00:50;;;;;;;5.20;3.70;;;8.60;99.90;;;;;;5089435;28;20416;-76
2022/09/29 00:03:37;;;;;;;7.87;4.03;;;8.60;99.90;;;;;;5085532;28;20535;-77
2022/09/29 00:06:24;;;;;;;6.17;3.57;;;8.50;99.90;;;;;;5085116;28;20522;-77
2022/09/29 00:09:09;;;;;;;7.00;4.00;;;8.50;99.90;;;;;;5092041;28;20937;-77
2022/09/29 00:11:55;;;;;;;4.20;3.77;;;8.50;99.90;;;;;;5080965;28;20531;-77
2022/09/29 00:14:41;;;;;;;10.93;3.67;;;8.60;99.90;;;;;;5094126;28;20458;-76
2022/09/29 00:17:27;;;;;;;4.50;4.10;;;8.60;99.90;;;;;;5083449;28;20418;-76
2022/09/29 00:20:12;;;;;;;7.73;3.80;;;8.60;99.90;;;;;;5089198;28;20554;-77
2022/09/29 00:22:59;;;;;;;6.70;4.40;;;8.50;99.90;;;;;;5091961;28;20497;-77
2022/09/29 00:25:45;;;;;;;6.30;5.40;;;8.30;99.90;;;;;;5090980;28;20504;-77
2022/09/29 00:28:31;;;;;;;11.83;5.87;;;8.40;99.90;;;;;;5088821;28;20557;-77
2022/09/29 00:31:17;;;;;;;11.53;5.33;;;8.20;99.90;;;;;;5094111;28;20436;-77
2022/09/29 00:34:03;;;;;;;7.63;5.63;;;8.30;99.90;;;;;;5094877;28;20562;-76
2022/09/29 00:36:49;;;;;;;7.90;5.30;;;8.30;99.90;;;;;;5091070;28;20450;-76
2022/09/29 00:39:36;;;;;;;11.33;5.17;;;8.40;99.90;;;;;;5089084;28;20583;-76
2022/09/29 00:42:22;;;;;;;5.40;4.60;;;8.40;99.90;;;;;;5097104;28;20591;-76
2022/09/29 00:45:21;;;;;;;12.33;5.93;;;8.30;99.90;;;;;;5089910;28;20824;-76
2022/09/29 00:48:16;;;;;;;9.13;5.63;;;8.20;99.90;;;;;;5099620;28;20440;-77
2022/09/29 00:51:02;;;;;;;11.52;4.60;;;8.20;99.90;;;;;;5094627;28;20419;-76
2022/09/29 00:53:49;;;;;;;8.40;5.20;;;8.10;99.90;;;;;;5092275;28;20289;-75
2022/09/29 00:56:39;;;;;;;7.70;5.68;;;8.30;99.90;;;;;;5094067;28;20985;-76
2022/09/29 00:59:32;;;;;;;8.73;4.73;;;8.30;99.90;;;;;;5084214;28;20207;-76
2022/09/29 01:02:20;;;;;;;10.30;4.30;;;8.20;99.90;;;;;;5094416;28;20537;-77
2022/09/29 01:05:11;;;;;;;8.80;4.50;;;8.20;99.90;;;;;;5083299;28;20417;-77
2022/09/29 01:07:57;;;;;;;6.63;4.60;;;8.10;99.90;;;;;;5081752;28;20449;-77
2022/09/29 01:10:43;;;;;;;5.10;4.20;;;8.00;99.90;;;;;;5092633;28;20424;-77
2022/09/29 01:13:32;;;;;;;5.60;4.60;;;8.00;99.90;;;;;;5084221;28;20465;-76
2022/09/29 01:16:18;;;;;;;13.10;4.90;;;8.00;99.90;;;;;;5087414;28;20443;-77
2022/09/29 01:19:07;;;;;;;6.67;5.27;;;7.90;99.90;;;;;;5090090;28;20806;-77
2022/09/29 01:22:04;;;;;;;7.10;5.07;;;7.90;99.90;;;;;;5092243;28;20441;-77
2022/09/29 01:25:02;;;;;;;10.40;5.33;;;8.00;99.90;;;;;;5078359;28;20467;-76
2022/09/29 01:28:16;;;;;;;10.57;5.47;;;8.10;99.90;;;;;;5089232;28;20437;-77
2022/09/29 01:31:23;;;;;;;6.23;4.83;;;8.20;99.90;;;;;;5091950;28;20534;-77
2022/09/29 01:34:20;;;;;;;6.90;4.70;;;8.30;99.90;;;;;;5089917;28;20955;-77
2022/09/29 01:37:14;;;;;;;9.67;7.43;;;8.40;99.90;;;;;;5093849;28;20437;-76
2022/09/29 01:40:06;;;;;;;17.87;7.70;;;8.40;99.90;;;;;;5086403;28;20778;-77
2022/09/29 01:42:59;;;;;;;12.23;7.23;;;8.40;99.90;;;;;;5097243;28;20469;-77
2022/09/29 01:45:50;;;;;;;217.93;10.00;;;8.50;99.90;;;;;;5090480;28;20912;-77
2022/09/29 01:48:44;;;;;;;21.63;7.40;;;8.40;99.90;;;;;;5089140;28;20924;-76
2022/09/29 01:51:40;;;;;;;19.23;7.30;;;8.40;99.90;;;;;;5088175;28;20420;-76
2022/09/29 01:54:37;;;;;;;15.23;7.47;;;8.40;99.90;;;;;;5090467;28;20446;-76
2022/09/29 01:57:29;;;;;;;18.53;7.43;;;8.40;99.90;;;;;;5090073;28;20404;-77
2022/09/29 02:00:17;;;;;;;62.33;7.10;;;8.40;99.90;;;;;;5097162;28;20438;-77
2022/09/29 02:03:09;;;;;;;17.83;7.23;;;8.40;99.90;;;;;;5090781;28;20548;-76
2022/09/29 02:06:01;;;;;;;23.67;5.93;;;8.30;99.90;;;;;;5088563;28;20445;-76
2022/09/29 02:08:51;;;;;;;12.67;5.33;;;8.10;99.90;;;;;;5084360;28;20488;-76
2022/09/29 02:11:41;;;;;;;13.03;5.80;;;8.10;99.90;;;;;;5082997;28;20450;-77
2022/09/29 02:14:30;;;;;;;8.17;5.80;;;7.80;99.90;;;;;;5083773;28;20488;-77
2022/09/29 02:17:19;;;;;;;6.63;4.80;;;7.80;99.90;;;;;;5090362;28;20442;-77
2022/09/29 02:20:11;;;;;;;15.50;5.60;;;7.70;99.90;;;;;;5088053;28;20442;-76
2022/09/29 02:22:58;;;;;;;6.77;5.37;;;7.60;99.90;;;;;;5084785;28;20473;-75
2022/09/29 02:25:46;;;;;;;5.83;4.83;;;7.60;99.90;;;;;;5094432;28;20453;-77
2022/09/29 02:28:32;;;;;;;7.83;4.97;;;7.60;99.90;;;;;;5091608;28;20453;-77
2022/09/29 02:31:18;;;;;;;6.63;5.27;;;7.60;99.90;;;;;;5090978;28;20446;-77
2022/09/29 02:34:06;;;;;;;7.37;5.60;;;7.70;99.90;;;;;;5087234;28;20649;-75
2022/09/29 02:37:00;;;;;;;13.40;5.03;;;7.70;99.90;;;;;;5082803;28;20446;-77
2022/09/29 02:39:54;;;;;;;6.43;4.90;;;7.80;99.90;;;;;;5090668;28;20438;-76
2022/09/29 02:42:50;;;;;;;8.10;5.40;;;7.80;99.90;;;;;;5084678;28;21001;-75
2022/09/29 02:45:47;;;;;;;6.17;5.20;;;7.80;99.90;;;;;;5091611;28;20492;-77
2022/09/29 02:48:59;;;;;;;6.70;5.53;;;7.90;99.90;;;;;;5078993;28;20449;-77
2022/09/29 02:51:49;;;;;;;9.40;5.60;;;8.10;99.90;;;;;;5096259;28;20454;-77
2022/09/29 02:54:49;;;;;;;6.03;4.87;;;8.00;99.90;;;;;;5089595;28;20789;-77
2022/09/29 02:57:46;;;;;;;11.60;5.87;;;7.90;99.90;;;;;;5084554;28;20401;-77
2022/09/29 03:00:33;;;;;;;9.67;5.70;;;7.90;99.90;;;;;;5087216;28;20442;-77
2022/09/29 03:03:18;;;;;;;32.67;6.90;;;7.90;99.90;;;;;;5091089;28;21046;-76
2022/09/29 03:06:04;;;;;;;11.63;6.77;;;7.90;99.90;;;;;;5095007;28;20437;-77
2022/09/29 03:08:50;;;;;;;9.63;7.57;;;7.80;99.90;;;;;;5097234;28;20968;-77
2022/09/29 03:11:37;;;;;;;12.47;6.63;;;7.80;99.90;;;;;;5084741;28;20446;-76
2022/09/29 03:14:23;;;;;;;14.13;6.70;;;7.80;99.90;;;;;;5085333;28;20446;-76
2022/09/29 03:17:09;;;;;;;8.37;6.23;;;7.80;99.90;;;;;;5087243;28;20809;-77
2022/09/29 03:19:54;;;;;;;14.70;6.60;;;7.80;99.90;;;;;;5096638;28;20415;-77
2022/09/29 03:22:40;;;;;;;16.07;6.30;;;7.80;99.90;;;;;;5082427;28;20486;-77
2022/09/29 03:25:27;;;;;;;20.13;6.50;;;7.80;99.90;;;;;;5092478;28;20473;-77
2022/09/29 03:28:15;;;;;;;8.93;5.47;;;7.80;99.90;;;;;;5091695;28;20592;-77
2022/09/29 03:31:05;;;;;;;15.80;5.43;;;7.80;99.90;;;;;;5087588;28;20425;-77
2022/09/29 03:33:51;;;;;;;22.63;7.03;;;7.80;99.90;;;;;;5092173;28;20550;-77
2022/09/29 03:36:36;;;;;;;14.63;9.00;;;7.70;99.90;;;;;;5095385;28;20439;-77
2022/09/29 03:39:22;;;;;;;9.47;6.87;;;7.60;99.90;;;;;;5088279;28;20504;-76
2022/09/29 03:42:08;;;;;;;7.77;5.50;;;7.60;99.90;;;;;;5083272;28;20482;-76
2022/09/29 03:44:55;;;;;;;11.10;5.90;;;7.60;99.90;;;;;;5088476;28;20476;-75
2022/09/29 03:47:41;;;;;;;13.03;6.10;;;7.60;99.90;;;;;;5082693;28;20805;-75
2022/09/29 03:50:27;;;;;;;7.87;5.27;;;7.70;99.90;;;;;;5087277;28;20424;-75
2022/09/29 03:53:12;;;;;;;6.90;4.90;;;7.70;99.90;;;;;;5084842;28;20465;-75
2022/09/29 03:55:58;;;;;;;7.20;5.67;;;7.60;99.90;;;;;;5084033;28;20453;-75
2022/09/29 03:58:44;;;;;;;11.50;7.00;;;7.50;99.90;;;;;;5081423;28;20465;-75
2022/09/29 04:01:31;;;;;;;10.10;7.73;;;7.40;99.90;;;;;;5076175;28;20593;-75
2022/09/29 04:04:16;;;;;;;13.13;10.83;;;7.40;99.90;;;;;;5084865;28;20431;-76
2022/09/29 04:07:02;;;;;;;11.33;9.47;;;7.30;99.90;;;;;;5093327;28;20441;-76
2022/09/29 04:09:48;;;;;;;11.60;8.90;;;7.10;99.90;;;;;;5085004;28;20411;-76
2022/09/29 04:12:33;;;;;;;9.37;7.80;;;7.10;99.90;;;;;;5080960;28;20436;-75
2022/09/29 04:15:19;;;;;;;11.10;7.80;;;7.20;99.90;;;;;;5084434;28;20763;-76
2022/09/29 04:18:06;;;;;;;12.30;9.10;;;7.20;99.90;;;;;;5084756;28;20446;-76
2022/09/29 04:20:52;;;;;;;29.03;13.40;;;7.20;99.90;;;;;;5078505;28;20413;-76
2022/09/29 04:23:38;;;;;;;43.63;10.73;;;7.20;99.90;;;;;;5091784;22;20464;-75
2022/09/29 04:26:24;;;;;;;44.27;10.70;;;7.00;99.90;;;;;;5066676;28;20270;-75
2022/09/29 04:29:11;;;;;;;25.00;12.50;;;7.00;99.90;;;;;;5072957;28;20461;-75
2022/09/29 04:31:56;;;;;;;19.93;11.83;;;7.00;99.90;;;;;;5061123;28;20438;-75
2022/09/29 04:34:43;;;;;;;20.17;11.90;;;7.00;99.90;;;;;;5041546;28;20493;-75
2022/09/29 04:37:30;;;;;;;20.93;12.10;;;7.10;99.90;;;;;;5050994;28;20216;-75
2022/09/29 04:40:16;;;;;;;23.17;15.30;;;7.10;99.90;;;;;;5034950;28;20447;-74
2022/09/29 04:43:02;;;;;;;17.40;13.18;;;7.00;99.90;;;;;;5045135;28;20990;-74
2022/09/29 04:45:48;;;;;;;19.80;13.60;;;7.10;99.90;;;;;;5040250;28;20244;-75
2022/09/29 04:48:35;;;;;;;15.23;10.63;;;7.00;99.90;;;;;;5045939;28;20444;-75
2022/09/29 04:51:22;;;;;;;9.27;7.40;;;7.00;99.90;;;;;;5041086;28;20439;-75
2022/09/29 04:54:08;;;;;;;13.40;7.10;;;7.00;99.90;;;;;;5037549;28;20487;-75
2022/09/29 04:56:53;;;;;;;6.83;6.10;;;7.00;99.90;;;;;;5045729;28;20551;-75
2022/09/29 04:59:39;;;;;;;10.40;6.37;;;7.00;99.90;;;;;;5046239;28;20435;-75
2022/09/29 05:02:25;;;;;;;9.77;7.23;;;7.10;99.90;;;;;;5036624;28;20470;-75
2022/09/29 05:05:12;;;;;;;9.45;6.70;;;7.00;99.90;;;;;;5040888;28;20478;-75
2022/09/29 05:08:02;;;;;;;8.10;6.63;;;7.00;99.90;;;;;;5046211;28;20268;-75
2022/09/29 05:10:50;;;;;;;8.00;6.63;;;7.00;99.90;;;;;;5046234;28;20462;-75
2022/09/29 05:13:35;;;;;;;16.00;10.53;;;7.10;99.90;;;;;;5055826;28;20466;-74
2022/09/29 05:16:21;;;;;;;23.88;14.65;;;7.00;99.90;;;;;;5049320;28;20442;-75
2022/09/29 05:19:07;;;;;;;24.70;13.70;;;6.90;99.90;;;;;;5035456;28;20211;-75
2022/09/29 05:21:52;;;;;;;20.73;13.57;;;6.80;99.90;;;;;;5044020;28;20414;-75
2022/09/29 05:24:39;;;;;;;20.37;13.50;;;6.80;99.90;;;;;;5050566;28;20229;-75
2022/09/29 05:27:25;;;;;;;28.73;17.20;;;6.70;99.90;;;;;;5053241;28;20454;-75
2022/09/29 05:30:11;;;;;;;32.10;19.77;;;6.70;99.90;;;;;;5045401;28;20450;-75
2022/09/29 05:32:57;;;;;;;25.20;14.68;;;6.70;99.90;;;;;;5046390;28;20471;-75
2022/09/29 05:35:42;;;;;;;17.57;9.97;;;6.80;99.90;;;;;;5054610;28;20411;-75
2022/09/29 05:38:28;;;;;;;14.03;9.23;;;6.90;99.90;;;;;;5052652;28;20443;-75
2022/09/29 05:41:17;;;;;;;10.85;6.32;;;7.00;99.90;;;;;;5048776;28;20460;-74
2022/09/29 05:44:03;;;;;;;12.80;9.83;;;7.00;99.90;;;;;;5037174;28;20232;-74
2022/09/29 05:46:48;;;;;;;17.67;9.97;;;6.90;99.90;;;;;;5044068;28;21002;-75
2022/09/29 05:49:35;;;;;;;13.35;9.07;;;6.80;99.90;;;;;;5034065;28;20504;-75
2022/09/29 05:52:21;;;;;;;13.05;8.88;;;6.70;99.90;;;;;;5048182;28;20216;-75
2022/09/29 05:55:09;;;;;;;16.75;9.65;;;6.90;99.90;;;;;;5046226;28;20212;-75
2022/09/29 05:57:56;;;;;;;34.83;8.63;;;7.00;99.90;;;;;;5047803;28;20196;-74
2022/09/29 06:00:42;;;;;;;15.95;10.10;;;7.20;99.90;;;;;;5040268;28;20224;-75
2022/09/29 06:03:27;;;;;;;11.40;9.18;;;7.20;99.90;;;;;;5039144;28;20334;-75
2022/09/29 06:06:14;;;;;;;11.55;9.45;;;7.30;99.90;;;;;;5044409;28;20348;-75
2022/09/29 06:09:00;;;;;;;27.23;9.70;;;7.40;99.90;;;;;;5050775;28;20209;-75
2022/09/29 06:11:46;;;;;;;12.17;8.70;;;7.40;99.90;;;;;;5044549;28;20260;-75
2022/09/29 06:14:33;;;;;;;13.50;9.50;;;7.40;99.90;;;;;;5053404;28;21066;-75
2022/09/29 06:17:19;;;;;;;11.00;9.20;;;7.40;99.90;;;;;;5051490;28;21093;-75
2022/09/29 06:20:06;;;;;;;10.90;8.30;;;7.50;99.90;;;;;;5047931;28;20458;-75
2022/09/29 06:22:54;;;;;;;14.63;7.27;;;7.60;99.90;;;;;;5041356;28;20471;-75
2022/09/29 06:25:39;;;;;;;19.37;8.27;;;7.60;99.90;;;;;;5047597;28;20488;-75
2022/09/29 06:28:25;;;;;;;45.30;7.70;;;7.60;99.90;;;;;;5042713;28;20440;-75
2022/09/29 06:31:13;;;;;;;7.90;6.70;;;7.70;99.90;;;;;;5046074;28;20450;-75
2022/09/29 06:34:01;;;;;;;11.95;6.70;;;7.70;99.90;;;;;;5040146;28;20453;-75
2022/09/29 06:39:50;;;;;;;19.40;14.43;;;7.60;99.90;;;;;;5048079;28;20236;-75
2022/09/29 06:42:35;;;;;;;10.73;8.17;;;7.70;99.90;;;;;;5049746;28;20224;-75
2022/09/29 06:45:21;;;;;;;7.40;6.40;;;7.80;99.90;;;;;;5048346;28;20659;-75
2022/09/29 06:48:10;;;;;;;7.55;6.10;;;8.00;99.90;;;;;;5040271;28;20516;-75
2022/09/29 06:50:55;;;;;;;7.13;5.30;;;7.90;99.90;;;;;;5041663;28;20252;-75
2022/09/29 06:53:41;;;;;;;6.80;6.10;;;8.00;99.90;;;;;;5051517;28;20470;-75
2022/09/29 06:56:26;;;;;;;6.33;5.47;;;8.10;99.90;;;;;;5047932;28;21010;-75
2022/09/29 06:59:12;;;;;;;23.95;8.63;;;8.10;99.90;;;;;;5035679;28;20448;-75
2022/09/29 07:01:58;;;;;;;15.87;7.10;;;8.20;99.90;;;;;;5044635;28;20213;-75
2022/09/29 07:04:47;;;;;;;11.63;8.30;;;8.20;99.90;;;;;;5045132;28;20475;-75
2022/09/29 07:07:33;;;;;;;13.83;8.13;;;8.30;99.90;;;;;;5052832;28;20436;-75
2022/09/29 07:10:18;;;;;;;13.20;7.27;;;8.40;99.90;;;;;;5042730;28;21013;-75
2022/09/29 07:13:05;;;;;;;12.30;7.72;;;8.50;99.90;;;;;;5046788;28;20462;-74
2022/09/29 07:15:51;;;;;;;10.10;8.07;;;8.50;99.90;;;;;;5051747;28;20204;-75
2022/09/29 07:18:38;;;;;;;8.00;6.60;;;8.60;99.90;;;;;;5039403;28;20825;-75
2022/09/29 07:21:25;;;;;;;12.43;7.40;;;8.70;99.90;;;;;;5037480;28;20451;-75
2022/09/29 07:24:11;;;;;;;8.50;6.60;;;8.70;99.90;;;;;;5050184;28;20490;-74
2022/09/29 07:26:57;;;;;;;8.37;6.57;;;8.90;99.90;;;;;;5044731;28;20439;-75
2022/09/29 07:29:42;;;;;;;8.30;6.57;;;9.00;99.90;;;;;;5044437;28;20437;-75
2022/09/29 07:32:31;;;;;;;8.07;6.80;;;9.00;99.90;;;;;;5045097;28;20467;-75
2022/09/29 07:35:16;;;;;;;7.57;6.17;;;9.10;99.90;;;;;;5034644;28;20578;-75
2022/09/29 07:38:03;;;;;;;8.30;5.93;;;9.20;99.90;;;;;;5035581;28;20960;-75
2022/09/29 07:40:49;;;;;;;5.80;5.20;;;9.40;99.90;;;;;;5045602;28;20422;-75
2022/09/29 07:43:35;;;;;;;7.13;6.00;;;9.50;99.90;;;;;;5047618;28;20510;-76
2022/09/29 07:46:20;;;;;;;7.23;6.13;;;9.60;99.90;;;;;;5039066;28;20466;-75
2022/09/29 07:49:06;;;;;;;10.30;6.87;;;9.70;99.90;;;;;;5038338;28;20502;-75
2022/09/29 07:51:52;;;;;;;10.60;7.20;;;9.90;99.90;;;;;;5047488;28;20954;-75
2022/09/29 07:54:39;;;;;;;12.00;7.97;;;10.00;99.90;;;;;;5048364;28;20422;-75
2022/09/29 07:57:25;;;;;;;12.07;9.37;;;10.20;99.90;;;;;;5044098;28;20413;-75
2022/09/29 08:00:12;;;;;;;10.30;7.87;;;10.40;99.90;;;;;;5041523;28;20608;-75
2022/09/29 08:03:01;;;;;;;10.37;7.43;;;10.60;99.90;;;;;;5037246;28;20442;-75
2022/09/29 08:05:46;;;;;;;9.27;7.30;;;10.80;99.90;;;;;;5045650;28;20475;-75
2022/09/29 08:08:32;;;;;;;8.93;6.47;;;10.90;99.90;;;;;;5048279;28;20449;-75
2022/09/29 08:11:21;;;;;;;8.20;6.20;;;11.10;99.90;;;;;;5047946;28;20517;-75
2022/09/29 08:14:07;;;;;;;9.23;6.87;;;11.30;99.90;;;;;;5041475;28;20479;-75
2022/09/29 08:16:53;;;;;;;11.93;6.40;;;11.50;99.90;;;;;;5038859;28;20452;-75
2022/09/29 08:19:38;;;;;;;8.47;5.60;;;11.60;99.90;;;;;;5046612;28;20633;-75
2022/09/29 08:22:24;;;;;;;6.70;5.20;;;11.70;99.90;;;;;;5040428;28;20542;-75
2022/09/29 08:25:10;;;;;;;11.80;5.23;;;11.70;99.90;;;;;;5038517;28;20492;-75
2022/09/29 08:27:56;;;;;;;13.57;6.60;;;11.80;99.90;;;;;;5045601;28;20501;-75
2022/09/29 08:30:42;;;;;;;7.70;5.17;;;11.90;99.90;;;;;;5047110;28;20821;-76
2022/09/29 08:33:29;;;;;;;8.40;5.90;;;12.00;99.90;;;;;;5050923;28;20604;-75
2022/09/29 08:36:15;;;;;;;7.47;4.60;;;12.10;99.90;;;;;;5050709;28;20438;-75
2022/09/29 08:39:01;;;;;;;8.43;4.60;;;12.20;99.90;;;;;;5046165;28;20460;-74
2022/09/29 08:41:59;;;;;;;5.43;4.17;;;12.20;99.90;;;;;;5039039;28;20561;-75
2022/09/29 08:44:53;;;;;;;5.80;3.90;;;12.40;99.90;;;;;;5045709;28;20447;-75
2022/09/29 08:47:44;;;;;;;11.17;4.30;;;12.40;99.90;;;;;;5043556;28;20475;-75
2022/09/29 08:50:35;;;;;;;8.00;5.20;;;12.50;99.90;;;;;;5057182;28;20463;-74
2022/09/29 08:53:22;;;;;;;9.47;6.53;;;12.50;99.90;;;;;;5056339;28;20629;-76
2022/09/29 08:56:14;;;;;;;11.23;7.40;;;12.50;99.90;;;;;;5047153;28;20495;-75
2022/09/29 08:59:00;;;;;;;8.57;6.97;;;12.50;99.90;;;;;;5042019;28;20548;-75
2022/09/29 09:01:58;;;;;;;9.50;6.97;;;12.50;99.90;;;;;;5048374;28;22293;-75
2022/09/29 09:05:00;;;;;;;12.00;7.77;;;12.40;99.90;;;;;;5048238;28;20446;-75
2022/09/29 09:07:56;;;;;;;14.70;9.60;;;12.40;99.90;;;;;;5041853;28;20462;-75
2022/09/29 09:10:46;;;;;;;9.63;7.80;;;12.30;99.90;;;;;;5040380;28;20451;-75
2022/09/29 09:13:51;;;;;;;12.30;8.07;;;12.20;99.90;;;;;;5048996;28;20468;-75
2022/09/29 09:16:47;;;;;;;13.63;7.13;;;12.20;99.90;;;;;;5037037;28;20418;-75
2022/09/29 09:19:54;;;;;;;14.07;9.63;;;12.30;99.90;;;;;;5047910;28;20452;-74
2022/09/29 09:22:50;;;;;;;13.83;9.20;;;12.30;99.90;;;;;;5046916;28;20483;-76
2022/09/29 09:25:40;;;;;;;15.37;9.67;;;12.20;99.90;;;;;;5043211;28;20814;-75
2022/09/29 09:28:31;;;;;;;11.30;8.70;;;12.30;99.90;;;;;;5050256;28;20889;-75
2022/09/29 09:31:21;;;;;;;9.87;8.73;;;12.50;99.90;;;;;;5047184;28;20434;-75
2022/09/29 09:34:14;;;;;;;14.27;9.37;;;12.60;99.90;;;;;;5040547;28;20512;-75
2022/09/29 09:37:05;;;;;;;11.60;8.20;;;12.80;99.90;;;;;;5040693;28;20444;-74
2022/09/29 09:40:00;;;;;;;9.87;7.63;;;12.70;99.90;;;;;;5043177;28;20484;-75
2022/09/29 09:42:50;;;;;;;12.83;7.50;;;12.90;99.90;;;;;;5040677;28;20838;-74
2022/09/29 09:45:42;;;;;;;10.17;7.33;;;13.00;99.90;;;;;;5039763;28;20602;-76
2022/09/29 09:48:33;;;;;;;10.17;8.03;;;13.00;99.90;;;;;;5053229;28;20421;-74
2022/09/29 09:51:30;;;;;;;11.57;8.10;;;13.00;99.90;;;;;;5039715;28;20972;-75
2022/09/29 09:54:30;;;;;;;14.13;9.03;;;12.90;99.90;;;;;;5037408;28;21019;-73
2022/09/29 09:57:37;;;;;;;12.20;7.80;;;12.90;99.90;;;;;;5039999;28;21044;-74
2022/09/29 10:00:25;;;;;;;9.70;8.67;;;13.00;99.90;;;;;;5057010;28;20564;-75
2022/09/29 10:03:13;;;;;;;12.77;8.70;;;13.00;99.90;;;;;;5054769;28;20478;-76
2022/09/29 10:05:59;;;;;;;15.70;8.83;;;13.10;99.90;;;;;;5037204;28;20542;-76
2022/09/29 10:08:45;;;;;;;9.40;6.80;;;13.10;99.90;;;;;;5048971;28;20418;-76
2022/09/29 10:11:32;;;;;;;8.10;7.10;;;13.10;99.90;;;;;;5035892;28;20460;-75
2022/09/29 10:14:24;;;;;;;10.30;7.00;;;13.20;99.90;;;;;;5041301;28;20464;-76
2022/09/29 10:17:14;;;;;;;13.93;7.03;;;13.40;99.90;;;;;;5036700;28;21004;-75
2022/09/29 10:20:02;;;;;;;11.13;8.77;;;13.60;99.90;;;;;;5035912;28;20867;-74
2022/09/29 10:22:48;;;;;;;11.27;7.70;;;13.80;99.90;;;;;;5051328;22;20434;-76
2022/09/29 10:25:34;;;;;;;10.40;8.20;;;13.70;99.90;;;;;;5089744;28;20810;-76
2022/09/29 10:28:22;;;;;;;12.00;8.33;;;13.60;99.90;;;;;;5090730;28;20453;-76
2022/09/29 10:31:21;;;;;;;12.63;8.23;;;13.70;99.90;;;;;;5085104;28;20778;-76
2022/09/29 10:34:16;;;;;;;10.87;7.30;;;13.80;99.90;;;;;;5108194;27;20445;-76
2022/09/29 10:37:04;;;;;;;12.10;8.40;;;13.90;99.90;;;;;;5106189;27;20444;-75
2022/09/29 10:39:50;;;;;;;11.73;8.40;;;14.00;99.90;;;;;;5097658;28;20436;-75
2022/09/29 10:42:38;;;;;;;22.13;8.60;;;14.00;99.90;;;;;;5105610;27;20438;-76
2022/09/29 10:45:27;;;;;;;12.13;9.43;;;13.90;99.90;;;;;;5101130;27;20855;-76
2022/09/29 10:48:14;;;;;;;16.53;10.93;;;13.90;99.90;;;;;;5109645;27;20784;-76
2022/09/29 10:51:01;;;;;;;14.40;10.70;;;13.90;99.90;;;;;;5103339;27;20904;-76
2022/09/29 10:53:46;;;;;;;13.33;10.73;;;14.00;99.90;;;;;;5103705;27;20480;-76
2022/09/29 10:56:32;;;;;;;15.73;10.83;;;14.10;99.90;;;;;;5104716;27;20437;-76
2022/09/29 10:59:19;;;;;;;14.60;10.33;;;14.20;99.90;;;;;;5102513;27;20504;-76
2022/09/29 11:02:14;;;;;;;13.33;10.90;;;14.30;99.90;;;;;;5109355;27;20432;-76
2022/09/29 11:05:02;;;;;;;12.80;9.37;;;14.50;99.90;;;;;;5096623;28;20457;-76
2022/09/29 11:07:51;;;;;;;11.03;9.40;;;14.80;99.90;;;;;;5105410;27;20443;-76
2022/09/29 11:10:37;;;;;;;11.07;8.77;;;14.70;99.90;;;;;;5107491;27;21126;-76
2022/09/29 11:13:36;;;;;;;15.73;8.60;;;14.50;99.90;;;;;;5106616;27;20451;-76
2022/09/29 11:16:28;;;;;;;11.73;7.03;;;14.40;99.90;;;;;;5104829;27;20796;-76
2022/09/29 11:19:15;;;;;;;9.10;7.43;;;14.30;99.90;;;;;;5100685;27;20413;-76
2022/09/29 11:22:41;;;;;;;9.23;6.90;;;14.40;99.90;;;;;;5104097;27;20814;-75
2022/09/29 11:25:55;;;;;;;9.50;6.80;;;14.30;99.90;;;;;;5091283;27;20423;-75
2022/09/29 11:28:58;;;;;;;9.97;6.10;;;14.60;99.90;;;;;;5106485;27;20442;-74
2022/09/29 11:32:06;;;;;;;8.83;5.67;;;14.60;99.90;;;;;;5108013;27;20449;-74
2022/09/29 11:35:07;;;;;;;13.37;5.60;;;14.90;99.90;;;;;;5094566;27;20449;-74
2022/09/29 11:38:08;;;;;;;6.90;4.90;;;15.10;99.90;;;;;;5099524;27;20411;-74
2022/09/29 11:41:07;;;;;;;7.60;5.90;;;15.00;99.90;;;;;;5096638;28;20419;-74
2022/09/29 11:43:56;;;;;;;8.33;5.90;;;14.70;99.90;;;;;;5090293;28;20450;-74
2022/09/29 11:47:01;;;;;;;10.13;6.77;;;14.70;99.90;;;;;;5103043;27;20604;-74
2022/09/29 11:50:03;;;;;;;15.67;6.07;;;14.50;99.90;;;;;;5099720;27;20452;-75
2022/09/29 11:53:10;;;;;;;12.73;5.90;;;14.50;99.90;;;;;;5107895;27;20814;-75
2022/09/29 11:56:16;;;;;;;7.77;4.47;;;14.80;99.90;;;;;;5098668;28;20420;-75
2022/09/29 11:59:16;;;;;;;6.90;4.90;;;15.10;99.90;;;;;;5105494;27;20542;-74
2022/09/29 12:02:28;;;;;;;6.60;4.40;;;15.30;99.90;;;;;;5105480;28;20533;-75
2022/09/29 12:05:22;;;;;;;6.23;4.50;;;15.40;99.90;;;;;;5092297;28;20826;-74
2022/09/29 12:08:19;;;;;;;7.23;3.50;;;15.70;99.90;;;;;;5105380;28;20928;-75
2022/09/29 12:11:09;;;;;;;6.80;3.93;;;15.90;99.90;;;;;;5100372;28;20427;-73
2022/09/29 12:14:02;;;;;;;13.07;3.63;;;16.10;96.20;;;;;;5096082;28;20440;-73
2022/09/29 12:16:53;;;;;;;8.20;3.83;;;16.10;97.00;;;;;;5093839;28;20489;-76
2022/09/29 12:19:42;;;;;;;12.13;2.87;;;15.90;92.20;;;;;;5106327;27;20457;-76
2022/09/29 12:22:30;;;;;;;6.23;2.20;;;15.70;81.50;;;;;;5108583;27;20423;-76
2022/09/29 12:25:18;;;;;;;5.50;2.60;;;15.70;84.50;;;;;;5099569;27;20557;-76
2022/09/29 12:28:11;;;;;;;6.90;3.00;;;15.70;83.10;;;;;;5104939;27;20443;-76
2022/09/29 12:31:01;;;;;;;8.00;3.13;;;15.80;89.50;;;;;;5113299;27;20427;-76
2022/09/29 12:33:52;;;;;;;4.27;2.40;;;15.80;97.40;;;;;;5112472;27;20455;-75
2022/09/29 12:36:52;;;;;;;4.20;1.90;;;15.60;85.60;;;;;;5124849;27;20477;-76
2022/09/29 12:39:44;;;;;;;4.53;2.17;;;15.50;83.20;;;;;;5129050;27;20926;-76
2022/09/29 12:42:40;;;;;;;13.13;3.33;;;15.60;89.00;;;;;;5103886;27;20419;-75
2022/09/29 12:45:33;;;;;;;5.17;2.80;;;15.50;87.90;;;;;;5112676;27;20407;-76
2022/09/29 12:48:46;;;;;;;5.57;2.50;;;15.50;87.00;;;;;;5117639;27;21014;-76
2022/09/29 12:51:36;;;;;;;4.77;2.63;;;15.70;87.10;;;;;;5107344;27;20776;-76
2022/09/29 12:54:27;;;;;;;11.93;3.73;;;15.60;81.50;;;;;;5110339;27;20945;-75
2022/09/29 12:57:17;;;;;;;4.03;2.53;;;15.60;81.60;;;;;;5122913;27;20895;-75
2022/09/29 13:00:08;;;;;;;4.53;2.50;;;15.70;83.50;;;;;;5106915;27;20534;-75
2022/09/29 13:03:30;;;;;;;9.90;2.77;;;15.90;85.10;;;;;;5112972;27;20531;-76
2022/09/29 13:06:31;;;;;;;8.13;2.83;;;16.00;86.90;;;;;;5117315;27;20468;-76
2022/09/29 13:09:48;;;;;;;4.93;2.23;;;16.00;84.20;;;;;;5115390;27;20406;-76
2022/09/29 13:12:58;;;;;;;3.70;1.80;;;16.00;85.10;;;;;;5117437;27;20602;-76
2022/09/29 13:15:58;;;;;;;7.30;2.00;;;15.90;82.80;;;;;;5113293;27;20414;-76
2022/09/29 13:19:19;;;;;;;5.23;1.87;;;15.80;78.50;;;;;;5116139;27;20419;-75
2022/09/29 13:22:26;;;;;;;7.30;2.10;;;15.70;77.90;;;;;;5101634;27;20426;-76
2022/09/29 13:25:22;;;;;;;4.33;2.00;;;15.60;76.20;;;;;;5120626;27;20501;-76
2022/09/29 13:28:25;;;;;;;11.20;2.27;;;15.60;76.30;;;;;;5120218;27;20954;-76
2022/09/29 13:31:14;;;;;;;4.07;1.90;;;15.50;70.50;;;;;;5109465;27;20796;-76
2022/09/29 13:34:01;;;;;;;6.07;1.90;;;15.40;81.70;;;;;;5116395;27;20581;-76
2022/09/29 13:36:48;;;;;;;5.93;2.37;;;15.40;91.00;;;;;;5131657;27;20641;-75
2022/09/29 13:39:34;;;;;;;5.37;2.67;;;15.30;85.90;;;;;;5110308;28;20441;-76
2022/09/29 13:42:37;;;;;;;6.37;2.40;;;15.20;80.90;;;;;;5106930;27;20449;-76
2022/09/29 13:45:45;;;;;;;6.43;2.20;;;15.20;90.50;;;;;;5117614;27;20498;-75
2022/09/29 13:48:52;;;;;;;5.60;2.30;;;15.10;96.70;;;;;;5105234;27;20964;-75
2022/09/29 13:51:44;;;;;;;4.80;2.70;;;14.90;99.90;;;;;;5113504;27;20550;-75
2022/09/29 13:54:38;;;;;;;4.10;1.63;;;14.90;99.90;;;;;;5110634;27;20412;-76
2022/09/29 13:57:24;;;;;;;6.20;2.30;;;14.80;99.90;;;;;;5108144;27;20530;-76
2022/09/29 14:00:20;;;;;;;4.50;2.27;;;14.80;99.90;;;;;;5129070;27;20399;-76
2022/09/29 14:03:35;;;;;;;5.50;3.30;;;14.60;99.90;;;;;;5105058;27;20964;-75
2022/09/29 14:06:23;;;;;;;7.60;2.77;;;14.70;99.90;;;;;;5071156;28;20955;-75
2022/09/29 14:09:15;;;;;;;10.03;2.40;;;14.60;99.90;;;;;;5105774;27;20438;-75
2022/09/29 14:12:07;;;;;;;5.43;2.00;;;14.60;99.90;;;;;;5108584;27;20490;-75
2022/09/29 14:14:56;;;;;;;3.80;2.20;;;14.60;99.90;;;;;;5119759;27;20436;-75
2022/09/29 14:17:45;;;;;;;3.13;2.20;;;14.50;99.90;;;;;;5114242;27;20453;-76
2022/09/29 14:20:36;;;;;;;3.37;1.70;;;14.50;99.90;;;;;;5112957;27;20422;-75
2022/09/29 14:23:49;;;;;;;5.97;2.57;;;14.40;99.90;;;;;;5105533;27;20965;-75
2022/09/29 14:26:49;;;;;;;6.27;2.53;;;14.50;99.90;;;;;;5102834;27;20415;-75
2022/09/29 14:29:41;;;;;;;14.83;2.63;;;14.50;99.90;;;;;;5110950;27;20419;-75
2022/09/29 14:32:40;;;;;;;15.60;2.83;;;14.50;99.90;;;;;;5102606;27;20601;-75
2022/09/29 14:35:30;;;;;;;8.33;2.47;;;14.50;99.90;;;;;;5112282;27;20509;-76
2022/09/29 14:38:20;;;;;;;5.50;2.93;;;14.50;99.90;;;;;;5128071;27;20408;-75
2022/09/29 14:41:23;;;;;;;4.30;2.30;;;14.50;99.90;;;;;;5108929;27;20910;-75
2022/09/29 14:44:12;;;;;;;4.87;2.63;;;14.50;99.90;;;;;;5113605;27;20431;-75
2022/09/29 14:54:02;;;;;;;6.70;2.30;;;14.50;99.90;;;;;;5104628;27;20443;-76
2022/09/29 14:56:57;;;;;;;7.03;2.70;;;14.50;99.90;;;;;;5115988;27;20800;-75